createdAt,value
2018-02-16T00:00:25.171Z,1014.55
2018-02-16T00:01:33.924Z,1014.59
2018-02-16T00:02:43.152Z,1014.61
2018-02-16T00:03:52.113Z,1014.68
2018-02-16T00:05:01.411Z,1014.74
2018-02-16T00:06:10.622Z,1014.81
2018-02-16T00:07:19.884Z,1014.87
2018-02-16T00:08:28.633Z,1014.88
2018-02-16T00:09:37.468Z,1014.94
2018-02-16T00:10:46.731Z,1014.93
2018-02-16T00:11:55.477Z,1014.96
2018-02-16T00:13:04.495Z,1014.96
2018-02-16T00:14:13.502Z,1015.01
2018-02-16T00:15:22.495Z,1014.96
2018-02-16T00:16:31.522Z,1015.01
2018-02-16T00:17:40.998Z,1015.03
2018-02-16T00:18:50.032Z,1015.02
2018-02-16T00:19:59.266Z,1015.04
2018-02-16T00:21:08.250Z,1015.05
2018-02-16T00:22:16.949Z,1015.02
2018-02-16T00:23:26.165Z,1015.01
2018-02-16T00:24:35.121Z,1015.03
2018-02-16T00:25:44.613Z,1015.04
2018-02-16T00:26:53.303Z,1015.01
2018-02-16T00:28:02.007Z,1015.04
2018-02-16T00:29:10.971Z,1015.07
2018-02-16T00:30:20.221Z,1015.09
2018-02-16T00:31:29.010Z,1015.09
2018-02-16T00:32:37.710Z,1015.06
2018-02-16T00:33:47.270Z,1015.06
2018-02-16T00:34:56.594Z,1015.07
2018-02-16T00:36:05.451Z,1015.05
2018-02-16T00:37:14.162Z,1015.08
2018-02-16T00:38:23.103Z,1015.1
2018-02-16T00:39:32.087Z,1015.15
2018-02-16T00:40:41.167Z,1015.16
2018-02-16T00:41:50.182Z,1015.21
2018-02-16T00:42:59.454Z,1015.19
2018-02-16T00:44:08.782Z,1015.25
2018-02-16T00:45:17.761Z,1015.28
2018-02-16T00:46:26.781Z,1015.29
2018-02-16T00:47:35.759Z,1015.31
2018-02-16T00:48:44.476Z,1015.36
2018-02-16T00:49:53.770Z,1015.43
2018-02-16T00:51:02.548Z,1015.45
2018-02-16T00:52:11.245Z,1015.51
2018-02-16T00:53:20.474Z,1015.52
2018-02-16T00:54:29.696Z,1015.56
2018-02-16T00:55:38.478Z,1015.55
2018-02-16T00:56:47.304Z,1015.55
2018-02-16T00:57:56.101Z,1015.55
2018-02-16T00:59:05.343Z,1015.57
2018-02-16T01:00:14.318Z,1015.62
2018-02-16T01:01:23.078Z,1015.64
2018-02-16T01:02:32.609Z,1015.63
2018-02-16T01:03:41.690Z,1015.66
2018-02-16T01:04:51.011Z,1015.67
2018-02-16T01:05:59.779Z,1015.66
2018-02-16T01:07:09.144Z,1015.7
2018-02-16T01:08:17.885Z,1015.7
2018-02-16T01:09:27.129Z,1015.67
2018-02-16T01:10:36.711Z,1015.69
2018-02-16T01:11:45.999Z,1015.71
2018-02-16T01:12:55.308Z,1015.75
2018-02-16T01:14:04.617Z,1015.74
2018-02-16T01:15:13.604Z,1015.75
2018-02-16T01:16:22.581Z,1015.76
2018-02-16T01:17:31.295Z,1015.78
2018-02-16T01:18:40.018Z,1015.78
2018-02-16T01:19:49.356Z,1015.88
2018-02-16T01:20:58.348Z,1015.91
2018-02-16T01:22:07.852Z,1015.9
2018-02-16T01:23:17.643Z,1015.99
2018-02-16T01:24:26.338Z,1015.99
2018-02-16T01:25:35.338Z,1016
2018-02-16T01:26:44.088Z,1015.93
2018-02-16T01:27:53.059Z,1015.92
2018-02-16T01:29:02.344Z,1015.91
2018-02-16T01:30:11.313Z,1015.96
2018-02-16T01:31:20.277Z,1015.94
2018-02-16T01:32:29.312Z,1015.98
2018-02-16T01:33:38.063Z,1016
2018-02-16T01:34:47.160Z,1015.96
2018-02-16T01:35:56.405Z,1015.91
2018-02-16T01:37:05.153Z,1015.92
2018-02-16T01:38:14.400Z,1015.94
2018-02-16T01:39:23.434Z,1015.93
2018-02-16T01:40:32.390Z,1015.97
2018-02-16T01:41:41.123Z,1016
2018-02-16T01:42:50.138Z,1016.04
2018-02-16T01:43:58.877Z,1016.02
2018-02-16T01:45:07.924Z,1016.03
2018-02-16T01:46:17.425Z,1016.04
2018-02-16T01:47:26.373Z,1016.07
2018-02-16T01:48:35.360Z,1016.06
2018-02-16T01:49:44.353Z,1016.07
2018-02-16T01:50:53.330Z,1016.1
2018-02-16T01:52:02.314Z,1016.13
2018-02-16T01:53:11.374Z,1016.16
2018-02-16T01:54:20.069Z,1016.13
2018-02-16T01:55:29.058Z,1016.13
2018-02-16T01:56:38.357Z,1016.14
2018-02-16T01:57:47.069Z,1016.15
2018-02-16T01:58:56.040Z,1016.17
2018-02-16T02:00:05.355Z,1016.23
2018-02-16T02:01:14.840Z,1016.26
2018-02-16T02:02:23.825Z,1016.27
2018-02-16T02:03:32.935Z,1016.29
2018-02-16T02:04:42.435Z,1016.3
2018-02-16T02:05:51.395Z,1016.28
2018-02-16T02:07:00.098Z,1016.31
2018-02-16T02:08:09.116Z,1016.32
2018-02-16T02:09:18.624Z,1016.28
2018-02-16T02:10:27.863Z,1016.37
2018-02-16T02:11:36.867Z,1016.33
2018-02-16T02:12:45.868Z,1016.37
2018-02-16T02:13:54.827Z,1016.37
2018-02-16T02:15:03.528Z,1016.39
2018-02-16T02:16:12.286Z,1016.39
2018-02-16T02:17:21.022Z,1016.42
2018-02-16T02:18:30.241Z,1016.43
2018-02-16T02:19:38.977Z,1016.51
2018-02-16T02:20:48.476Z,1016.46
2018-02-16T02:21:57.706Z,1016.47
2018-02-16T02:23:06.748Z,1016.47
2018-02-16T02:24:15.710Z,1016.49
2018-02-16T02:25:24.686Z,1016.48
2018-02-16T02:26:34.162Z,1016.5
2018-02-16T02:27:43.172Z,1016.54
2018-02-16T02:28:52.399Z,1016.56
2018-02-16T02:30:01.663Z,1016.56
2018-02-16T02:31:10.954Z,1016.59
2018-02-16T02:32:19.935Z,1016.61
2018-02-16T02:33:28.911Z,1016.62
2018-02-16T02:34:37.939Z,1016.58
2018-02-16T02:35:46.925Z,1016.59
2018-02-16T02:36:56.528Z,1016.63
2018-02-16T02:38:05.776Z,1016.6
2018-02-16T02:39:14.501Z,1016.64
2018-02-16T02:40:24.541Z,1016.61
2018-02-16T02:41:33.780Z,1016.69
2018-02-16T02:42:42.735Z,1016.69
2018-02-16T02:43:52.267Z,1016.71
2018-02-16T02:45:01.530Z,1016.74
2018-02-16T02:46:10.737Z,1016.7
2018-02-16T02:47:19.973Z,1016.72
2018-02-16T02:48:28.689Z,1016.71
2018-02-16T02:49:37.666Z,1016.73
2018-02-16T02:50:47.178Z,1016.78
2018-02-16T02:51:56.452Z,1016.74
2018-02-16T02:53:05.963Z,1016.8
2018-02-16T02:54:15.440Z,1016.88
2018-02-16T02:55:24.945Z,1016.89
2018-02-16T02:56:33.909Z,1016.93
2018-02-16T02:57:43.703Z,1016.86
2018-02-16T02:58:52.673Z,1016.89
2018-02-16T03:00:01.916Z,1016.88
2018-02-16T03:01:10.881Z,1016.88
2018-02-16T03:02:19.862Z,1016.87
2018-02-16T03:03:28.827Z,1016.86
2018-02-16T03:04:38.117Z,1016.86
2018-02-16T03:05:47.054Z,1016.87
2018-02-16T03:06:56.260Z,1016.88
2018-02-16T03:08:05.224Z,1016.92
2018-02-16T03:09:14.470Z,1016.95
2018-02-16T03:10:23.415Z,1016.97
2018-02-16T03:11:32.372Z,1016.99
2018-02-16T03:12:41.888Z,1016.99
2018-02-16T03:13:50.836Z,1017.03
2018-02-16T03:14:59.790Z,1017.05
2018-02-16T03:16:08.768Z,1017.09
2018-02-16T03:17:17.727Z,1017.07
2018-02-16T03:18:26.971Z,1017.1
2018-02-16T03:19:35.938Z,1017.13
2018-02-16T03:20:44.908Z,1017.11
2018-02-16T03:21:53.883Z,1017.13
2018-02-16T03:23:03.147Z,1017.14
2018-02-16T03:24:11.842Z,1017.13
2018-02-16T03:25:21.059Z,1017.11
2018-02-16T03:26:30.843Z,1017.16
2018-02-16T03:27:40.117Z,1017.19
2018-02-16T03:28:49.106Z,1017.2
2018-02-16T03:29:58.653Z,1017.22
2018-02-16T03:31:08.201Z,1017.24
2018-02-16T03:32:17.173Z,1017.26
2018-02-16T03:33:26.412Z,1017.26
2018-02-16T03:34:35.155Z,1017.22
2018-02-16T03:35:44.112Z,1017.2
2018-02-16T03:36:53.079Z,1017.2
2018-02-16T03:38:02.305Z,1017.21
2018-02-16T03:39:11.255Z,1017.16
2018-02-16T03:40:20.225Z,1017.18
2018-02-16T03:41:29.199Z,1017.18
2018-02-16T03:42:38.197Z,1017.16
2018-02-16T03:43:47.184Z,1017.21
2018-02-16T03:44:55.961Z,1017.25
2018-02-16T03:46:04.961Z,1017.21
2018-02-16T03:47:13.694Z,1017.2
2018-02-16T03:48:22.400Z,1017.25
2018-02-16T03:49:31.369Z,1017.26
2018-02-16T03:50:40.076Z,1017.25
2018-02-16T03:51:49.048Z,1017.26
2018-02-16T03:52:58.315Z,1017.31
2018-02-16T03:54:08.079Z,1017.32
2018-02-16T03:55:17.081Z,1017.35
2018-02-16T03:56:25.793Z,1017.36
2018-02-16T03:57:35.036Z,1017.39
2018-02-16T03:58:43.740Z,1017.4
2018-02-16T03:59:52.966Z,1017.39
2018-02-16T04:01:02.214Z,1017.44
2018-02-16T04:02:11.181Z,1017.46
2018-02-16T04:03:20.155Z,1017.44
2018-02-16T04:04:29.224Z,1017.45
2018-02-16T04:05:38.206Z,1017.48
2018-02-16T04:06:46.955Z,1017.54
2018-02-16T04:07:56.239Z,1017.55
2018-02-16T04:09:05.233Z,1017.57
2018-02-16T04:10:14.187Z,1017.59
2018-02-16T04:11:23.645Z,1017.62
2018-02-16T04:12:32.641Z,1017.58
2018-02-16T04:13:41.591Z,1017.62
2018-02-16T04:14:50.584Z,1017.64
2018-02-16T04:15:59.529Z,1017.62
2018-02-16T04:17:09.032Z,1017.64
2018-02-16T04:18:17.756Z,1017.64
2018-02-16T04:19:26.744Z,1017.69
2018-02-16T04:20:35.705Z,1017.67
2018-02-16T04:21:44.697Z,1017.72
2018-02-16T04:22:53.404Z,1017.7
2018-02-16T04:24:02.660Z,1017.7
2018-02-16T04:25:11.699Z,1017.7
2018-02-16T04:26:20.679Z,1017.69
2018-02-16T04:27:29.912Z,1017.69
2018-02-16T04:28:38.930Z,1017.73
2018-02-16T04:29:47.993Z,1017.68
2018-02-16T04:30:56.979Z,1017.72
2018-02-16T04:32:05.961Z,1017.76
2018-02-16T04:33:15.464Z,1017.72
2018-02-16T04:34:24.465Z,1017.74
2018-02-16T04:35:33.688Z,1017.75
2018-02-16T04:36:42.968Z,1017.77
2018-02-16T04:37:51.973Z,1017.79
2018-02-16T04:39:01.744Z,1017.85
2018-02-16T04:40:11.020Z,1017.84
2018-02-16T04:41:20.386Z,1017.85
2018-02-16T04:42:29.881Z,1017.84
2018-02-16T04:43:38.853Z,1017.86
2018-02-16T04:44:47.825Z,1017.83
2018-02-16T04:45:56.852Z,1017.84
2018-02-16T04:47:05.591Z,1017.84
2018-02-16T04:48:14.555Z,1017.88
2018-02-16T04:49:24.094Z,1017.92
2018-02-16T04:50:33.056Z,1017.95
2018-02-16T04:51:42.291Z,1018.01
2018-02-16T04:52:51.521Z,1017.99
2018-02-16T04:54:00.531Z,1018.04
2018-02-16T04:55:09.808Z,1018.05
2018-02-16T04:56:18.759Z,1018.09
2018-02-16T04:57:27.798Z,1018.14
2018-02-16T04:58:36.768Z,1018.18
2018-02-16T04:59:45.546Z,1018.24
2018-02-16T05:00:54.610Z,1018.2
2018-02-16T05:02:04.145Z,1018.27
2018-02-16T05:03:12.849Z,1018.24
2018-02-16T05:04:22.067Z,1018.29
2018-02-16T05:05:31.293Z,1018.3
2018-02-16T05:06:40.265Z,1018.31
2018-02-16T05:07:49.210Z,1018.34
2018-02-16T05:08:57.911Z,1018.35
2018-02-16T05:10:07.188Z,1018.36
2018-02-16T05:11:16.942Z,1018.43
2018-02-16T05:12:26.447Z,1018.4
2018-02-16T05:13:35.456Z,1018.38
2018-02-16T05:14:44.682Z,1018.4
2018-02-16T05:15:53.917Z,1018.41
2018-02-16T05:17:03.175Z,1018.45
2018-02-16T05:18:12.255Z,1018.48
2018-02-16T05:19:21.485Z,1018.53
2018-02-16T05:20:30.732Z,1018.54
2018-02-16T05:21:39.522Z,1018.52
2018-02-16T05:22:48.466Z,1018.51
2018-02-16T05:23:58.078Z,1018.56
2018-02-16T05:25:07.352Z,1018.47
2018-02-16T05:26:16.844Z,1018.48
2018-02-16T05:27:25.585Z,1018.51
2018-02-16T05:28:34.556Z,1018.54
2018-02-16T05:29:43.756Z,1018.48
2018-02-16T05:30:52.721Z,1018.54
2018-02-16T05:32:02.226Z,1018.63
2018-02-16T05:33:11.472Z,1018.66
2018-02-16T05:34:20.483Z,1018.67
2018-02-16T05:35:29.690Z,1018.7
2018-02-16T05:36:38.382Z,1018.67
2018-02-16T05:37:47.154Z,1018.7
2018-02-16T05:38:56.379Z,1018.73
2018-02-16T05:40:05.330Z,1018.69
2018-02-16T05:41:14.270Z,1018.71
2018-02-16T05:42:23.786Z,1018.71
2018-02-16T05:43:33.017Z,1018.69
2018-02-16T05:44:42.213Z,1018.67
2018-02-16T05:45:51.468Z,1018.68
2018-02-16T05:47:00.949Z,1018.73
2018-02-16T05:48:09.895Z,1018.77
2018-02-16T05:49:18.567Z,1018.76
2018-02-16T05:50:27.288Z,1018.78
2018-02-16T05:51:36.541Z,1018.79
2018-02-16T05:52:46.054Z,1018.8
2018-02-16T05:53:55.571Z,1018.84
2018-02-16T05:55:04.541Z,1018.83
2018-02-16T05:56:14.290Z,1018.81
2018-02-16T05:57:23.494Z,1018.81
2018-02-16T05:58:32.184Z,1018.81
2018-02-16T05:59:41.202Z,1018.82
2018-02-16T06:00:50.177Z,1018.86
2018-02-16T06:01:59.463Z,1018.9
2018-02-16T06:03:08.425Z,1018.94
2018-02-16T06:04:17.112Z,1018.95
2018-02-16T06:05:26.085Z,1018.96
2018-02-16T06:06:34.787Z,1019
2018-02-16T06:07:44.273Z,1018.92
2018-02-16T06:08:53.746Z,1019
2018-02-16T06:10:02.988Z,1018.97
2018-02-16T06:11:11.783Z,1019.02
2018-02-16T06:12:20.792Z,1019.05
2018-02-16T06:13:29.473Z,1019.05
2018-02-16T06:14:38.422Z,1019.08
2018-02-16T06:15:47.928Z,1019.06
2018-02-16T06:16:57.153Z,1019.07
2018-02-16T06:18:06.121Z,1019.07
2018-02-16T06:19:15.613Z,1019.07
2018-02-16T06:20:24.896Z,1019.09
2018-02-16T06:21:34.106Z,1019.11
2018-02-16T06:22:43.068Z,1019.07
2018-02-16T06:23:52.172Z,1019.12
2018-02-16T06:25:01.387Z,1019.15
2018-02-16T06:26:10.104Z,1019.16
2018-02-16T06:27:19.312Z,1019.2
2018-02-16T06:28:28.792Z,1019.2
2018-02-16T06:29:38.300Z,1019.24
2018-02-16T06:30:47.518Z,1019.27
2018-02-16T06:31:57.079Z,1019.31
2018-02-16T06:33:05.780Z,1019.31
2018-02-16T06:34:14.804Z,1019.29
2018-02-16T06:35:24.279Z,1019.27
2018-02-16T06:36:33.225Z,1019.33
2018-02-16T06:37:42.274Z,1019.33
2018-02-16T06:38:50.987Z,1019.28
2018-02-16T06:40:00.274Z,1019.28
2018-02-16T06:41:09.248Z,1019.25
2018-02-16T06:42:18.200Z,1019.24
2018-02-16T06:43:27.431Z,1019.26
2018-02-16T06:44:36.675Z,1019.25
2018-02-16T06:45:46.411Z,1019.29
2018-02-16T06:46:55.084Z,1019.29
2018-02-16T06:48:03.841Z,1019.32
2018-02-16T06:49:12.615Z,1019.34
2018-02-16T06:50:21.667Z,1019.36
2018-02-16T06:51:30.395Z,1019.38
2018-02-16T06:52:39.351Z,1019.39
2018-02-16T06:53:48.033Z,1019.41
2018-02-16T06:54:56.730Z,1019.41
2018-02-16T06:56:06.226Z,1019.44
2018-02-16T06:57:15.993Z,1019.41
2018-02-16T06:58:24.701Z,1019.4
2018-02-16T06:59:33.919Z,1019.39
2018-02-16T07:00:42.884Z,1019.44
2018-02-16T07:01:52.135Z,1019.45
2018-02-16T07:03:01.079Z,1019.49
2018-02-16T07:04:10.462Z,1019.48
2018-02-16T07:05:19.152Z,1019.55
2018-02-16T07:06:28.422Z,1019.53
2018-02-16T07:07:37.373Z,1019.56
2018-02-16T07:08:46.623Z,1019.58
2018-02-16T07:09:55.863Z,1019.6
2018-02-16T07:11:04.851Z,1019.61
2018-02-16T07:12:13.797Z,1019.6
2018-02-16T07:13:22.802Z,1019.6
2018-02-16T07:14:31.533Z,1019.6
2018-02-16T07:15:40.510Z,1019.61
2018-02-16T07:16:49.736Z,1019.6
2018-02-16T07:17:58.722Z,1019.6
2018-02-16T07:19:07.962Z,1019.63
2018-02-16T07:20:16.907Z,1019.63
2018-02-16T07:21:26.124Z,1019.65
2018-02-16T07:22:35.117Z,1019.64
2018-02-16T07:23:44.928Z,1019.69
2018-02-16T07:24:53.639Z,1019.71
2018-02-16T07:26:02.909Z,1019.75
2018-02-16T07:27:12.203Z,1019.74
2018-02-16T07:28:21.208Z,1019.77
2018-02-16T07:29:29.982Z,1019.75
2018-02-16T07:30:38.950Z,1019.81
2018-02-16T07:31:48.199Z,1019.79
2018-02-16T07:32:57.233Z,1019.84
2018-02-16T07:34:05.956Z,1019.86
2018-02-16T07:35:14.904Z,1019.89
2018-02-16T07:36:24.123Z,1019.97
2018-02-16T07:37:33.079Z,1019.97
2018-02-16T07:38:42.045Z,1020.01
2018-02-16T07:39:51.000Z,1020.02
2018-02-16T07:40:59.946Z,1020.01
2018-02-16T07:42:09.166Z,1020.01
2018-02-16T07:43:17.872Z,1020.05
2018-02-16T07:44:26.821Z,1020.07
2018-02-16T07:45:35.520Z,1020.09
2018-02-16T07:46:44.214Z,1020.14
2018-02-16T07:47:53.698Z,1020.08
2018-02-16T07:49:02.956Z,1020.13
2018-02-16T07:50:11.963Z,1020.15
2018-02-16T07:51:20.908Z,1020.16
2018-02-16T07:52:29.590Z,1020.18
2018-02-16T07:53:38.850Z,1020.24
2018-02-16T07:54:47.566Z,1020.2
2018-02-16T07:55:56.266Z,1020.22
2018-02-16T07:57:05.239Z,1020.28
2018-02-16T07:58:14.514Z,1020.28
2018-02-16T07:59:23.986Z,1020.33
2018-02-16T08:00:33.214Z,1020.31
2018-02-16T08:01:41.926Z,1020.3
2018-02-16T08:02:50.618Z,1020.32
2018-02-16T08:03:59.863Z,1020.37
2018-02-16T08:05:09.121Z,1020.36
2018-02-16T08:06:17.844Z,1020.37
2018-02-16T08:07:26.807Z,1020.38
2018-02-16T08:08:35.793Z,1020.38
2018-02-16T08:09:44.771Z,1020.43
2018-02-16T08:10:53.728Z,1020.46
2018-02-16T08:12:02.806Z,1020.46
2018-02-16T08:13:11.749Z,1020.48
2018-02-16T08:14:20.712Z,1020.5
2018-02-16T08:15:29.880Z,1020.54
2018-02-16T08:16:38.602Z,1020.52
2018-02-16T08:17:47.625Z,1020.49
2018-02-16T08:18:56.585Z,1020.54
2018-02-16T08:20:05.803Z,1020.51
2018-02-16T08:21:15.041Z,1020.57
2018-02-16T08:22:24.277Z,1020.59
2018-02-16T08:23:33.511Z,1020.61
2018-02-16T08:24:42.756Z,1020.68
2018-02-16T08:25:51.751Z,1020.7
2018-02-16T08:27:00.498Z,1020.69
2018-02-16T08:28:09.202Z,1020.7
2018-02-16T08:29:17.893Z,1020.67
2018-02-16T08:30:26.587Z,1020.68
2018-02-16T08:31:35.823Z,1020.73
2018-02-16T08:32:44.775Z,1020.75
2018-02-16T08:33:53.795Z,1020.77
2018-02-16T08:35:02.506Z,1020.83
2018-02-16T08:36:12.006Z,1020.82
2018-02-16T08:37:20.963Z,1020.86
2018-02-16T08:38:30.727Z,1020.87
2018-02-16T08:39:39.705Z,1020.89
2018-02-16T08:40:48.650Z,1020.96
2018-02-16T08:41:57.599Z,1020.97
2018-02-16T08:43:06.530Z,1020.97
2018-02-16T08:44:15.496Z,1020.96
2018-02-16T08:45:24.444Z,1021
2018-02-16T08:46:33.688Z,1021.02
2018-02-16T08:47:42.633Z,1021.02
2018-02-16T08:48:51.919Z,1021.01
2018-02-16T08:50:01.127Z,1021.04
2018-02-16T08:51:09.835Z,1021.03
2018-02-16T08:52:18.597Z,1021.06
2018-02-16T08:53:27.814Z,1021.1
2018-02-16T08:54:37.298Z,1021.09
2018-02-16T08:55:46.281Z,1021.14
2018-02-16T08:56:55.214Z,1021.15
2018-02-16T08:58:04.189Z,1021.16
2018-02-16T08:59:13.161Z,1021.17
2018-02-16T09:00:22.407Z,1021.2
2018-02-16T09:01:31.630Z,1021.22
2018-02-16T09:02:40.848Z,1021.2
2018-02-16T09:03:49.532Z,1021.24
2018-02-16T09:04:58.515Z,1021.23
2018-02-16T09:06:07.215Z,1021.24
2018-02-16T09:07:16.692Z,1021.23
2018-02-16T09:08:26.171Z,1021.21
2018-02-16T09:09:35.374Z,1021.24
2018-02-16T09:10:44.841Z,1021.25
2018-02-16T09:11:54.047Z,1021.28
2018-02-16T09:13:03.004Z,1021.28
2018-02-16T09:14:11.988Z,1021.3
2018-02-16T09:15:20.965Z,1021.32
2018-02-16T09:16:29.917Z,1021.35
2018-02-16T09:17:38.868Z,1021.37
2018-02-16T09:18:47.805Z,1021.45
2018-02-16T09:19:57.010Z,1021.44
2018-02-16T09:21:05.717Z,1021.42
2018-02-16T09:22:14.689Z,1021.4
2018-02-16T09:23:23.381Z,1021.41
2018-02-16T09:24:32.866Z,1021.39
2018-02-16T09:25:41.855Z,1021.4
2018-02-16T09:26:51.064Z,1021.41
2018-02-16T09:27:59.818Z,1021.45
2018-02-16T09:29:09.041Z,1021.39
2018-02-16T09:30:17.761Z,1021.44
2018-02-16T09:31:26.509Z,1021.42
2018-02-16T09:32:35.190Z,1021.41
2018-02-16T09:33:43.869Z,1021.42
2018-02-16T09:34:52.844Z,1021.47
2018-02-16T09:36:02.069Z,1021.5
2018-02-16T09:37:11.019Z,1021.47
2018-02-16T09:38:19.989Z,1021.49
2018-02-16T09:39:28.927Z,1021.5
2018-02-16T09:40:38.196Z,1021.53
2018-02-16T09:41:47.173Z,1021.58
2018-02-16T09:42:56.114Z,1021.59
2018-02-16T09:44:05.092Z,1021.66
2018-02-16T09:45:14.327Z,1021.66
2018-02-16T09:46:23.309Z,1021.69
2018-02-16T09:47:32.265Z,1021.7
2018-02-16T09:48:41.211Z,1021.71
2018-02-16T09:49:50.453Z,1021.69
2018-02-16T09:50:59.159Z,1021.71
2018-02-16T09:52:08.251Z,1021.73
2018-02-16T09:53:16.934Z,1021.71
2018-02-16T09:54:26.401Z,1021.72
2018-02-16T09:55:35.346Z,1021.75
2018-02-16T09:56:44.292Z,1021.74
2018-02-16T09:57:53.252Z,1021.73
2018-02-16T09:59:02.212Z,1021.76
2018-02-16T10:00:11.679Z,1021.77
2018-02-16T10:01:20.652Z,1021.73
2018-02-16T10:02:29.613Z,1021.72
2018-02-16T10:03:38.833Z,1021.73
2018-02-16T10:04:47.632Z,1021.76
2018-02-16T10:05:56.594Z,1021.76
2018-02-16T10:07:05.830Z,1021.76
2018-02-16T10:08:14.559Z,1021.75
2018-02-16T10:09:23.524Z,1021.76
2018-02-16T10:10:32.484Z,1021.75
2018-02-16T10:11:41.699Z,1021.74
2018-02-16T10:12:50.474Z,1021.71
2018-02-16T10:13:59.380Z,1021.76
2018-02-16T10:15:08.636Z,1021.77
2018-02-16T10:16:17.598Z,1021.77
2018-02-16T10:17:27.097Z,1021.79
2018-02-16T10:18:35.794Z,1021.82
2018-02-16T10:19:44.739Z,1021.84
2018-02-16T10:20:53.674Z,1021.88
2018-02-16T10:22:02.365Z,1021.85
2018-02-16T10:23:11.049Z,1021.92
2018-02-16T10:24:19.758Z,1021.85
2018-02-16T10:25:28.718Z,1021.95
2018-02-16T10:26:37.685Z,1021.96
2018-02-16T10:27:46.647Z,1021.98
2018-02-16T10:28:55.874Z,1021.99
2018-02-16T10:30:05.141Z,1022
2018-02-16T10:31:14.068Z,1021.96
2018-02-16T10:32:23.059Z,1022.03
2018-02-16T10:33:32.075Z,1022.03
2018-02-16T10:34:41.023Z,1022.03
2018-02-16T10:35:50.014Z,1022.05
2018-02-16T10:36:58.985Z,1022.05
2018-02-16T10:38:07.935Z,1022.05
2018-02-16T10:39:16.627Z,1022.02
2018-02-16T10:40:25.592Z,1022.05
2018-02-16T10:41:34.819Z,1021.99
2018-02-16T10:42:44.033Z,1021.98
2018-02-16T10:43:52.785Z,1022.05
2018-02-16T10:45:01.731Z,1022.05
2018-02-16T10:46:10.741Z,1022.03
2018-02-16T10:47:19.436Z,1022.08
2018-02-16T10:48:28.652Z,1022.1
2018-02-16T10:49:37.339Z,1022.08
2018-02-16T10:50:46.942Z,1022.08
2018-02-16T10:51:56.440Z,1022.13
2018-02-16T10:53:05.408Z,1022.11
2018-02-16T10:54:14.374Z,1022.1
2018-02-16T10:55:23.603Z,1022.12
2018-02-16T10:56:32.567Z,1022.12
2018-02-16T10:57:41.785Z,1022.08
2018-02-16T10:58:51.002Z,1022.1
2018-02-16T11:00:00.513Z,1022.12
2018-02-16T11:01:09.498Z,1022.1
2018-02-16T11:02:18.227Z,1022.13
2018-02-16T11:03:26.939Z,1022.1
2018-02-16T11:04:36.186Z,1022.14
2018-02-16T11:05:45.417Z,1022.12
2018-02-16T11:06:54.123Z,1022.11
2018-02-16T11:08:03.614Z,1022.16
2018-02-16T11:09:13.099Z,1022.16
2018-02-16T11:10:21.814Z,1022.15
2018-02-16T11:11:30.768Z,1022.18
2018-02-16T11:12:40.000Z,1022.15
2018-02-16T11:13:48.966Z,1022.16
2018-02-16T11:14:57.665Z,1022.18
2018-02-16T11:16:06.690Z,1022.2
2018-02-16T11:17:16.132Z,1022.12
2018-02-16T11:18:25.404Z,1022.17
2018-02-16T11:19:34.338Z,1022.15
2018-02-16T11:20:43.856Z,1022.15
2018-02-16T11:21:53.383Z,1022.23
2018-02-16T11:23:02.343Z,1022.23
2018-02-16T11:24:11.340Z,1022.26
2018-02-16T11:25:20.349Z,1022.24
2018-02-16T11:26:29.575Z,1022.27
2018-02-16T11:27:38.547Z,1022.3
2018-02-16T11:28:47.519Z,1022.27
2018-02-16T11:29:56.607Z,1022.27
2018-02-16T11:31:05.312Z,1022.23
2018-02-16T11:32:14.531Z,1022.22
2018-02-16T11:33:23.241Z,1022.24
2018-02-16T11:34:32.572Z,1022.23
2018-02-16T11:35:42.092Z,1022.26
2018-02-16T11:36:51.339Z,1022.23
2018-02-16T11:38:00.087Z,1022.21
2018-02-16T11:39:09.087Z,1022.23
2018-02-16T11:40:18.596Z,1022.21
2018-02-16T11:41:28.557Z,1022.24
2018-02-16T11:42:37.491Z,1022.24
2018-02-16T11:43:46.712Z,1022.27
2018-02-16T11:44:55.402Z,1022.28
2018-02-16T11:46:04.637Z,1022.29
2018-02-16T11:47:13.874Z,1022.24
2018-02-16T11:48:23.416Z,1022.24
2018-02-16T11:49:32.299Z,1022.23
2018-02-16T11:50:41.535Z,1022.27
2018-02-16T11:51:50.809Z,1022.26
2018-02-16T11:52:59.557Z,1022.26
2018-02-16T11:54:08.536Z,1022.23
2018-02-16T11:55:17.781Z,1022.29
2018-02-16T11:56:26.757Z,1022.28
2018-02-16T11:57:35.733Z,1022.27
2018-02-16T11:58:44.959Z,1022.26
2018-02-16T11:59:53.773Z,1022.27
2018-02-16T12:01:03.144Z,1022.28
2018-02-16T12:02:12.128Z,1022.26
2018-02-16T12:03:20.822Z,1022.26
2018-02-16T12:04:29.768Z,1022.29
2018-02-16T12:05:38.745Z,1022.25
2018-02-16T12:06:47.999Z,1022.24
2018-02-16T12:07:56.750Z,1022.22
2018-02-16T12:09:05.473Z,1022.22
2018-02-16T12:10:14.479Z,1022.24
2018-02-16T12:11:23.157Z,1022.25
2018-02-16T12:12:32.122Z,1022.24
2018-02-16T12:13:41.091Z,1022.29
2018-02-16T12:14:50.660Z,1022.33
2018-02-16T12:16:00.144Z,1022.29
2018-02-16T12:17:09.106Z,1022.28
2018-02-16T12:18:18.322Z,1022.28
2018-02-16T12:19:27.435Z,1022.26
2018-02-16T12:20:36.662Z,1022.25
2018-02-16T12:21:45.647Z,1022.24
2018-02-16T12:22:55.421Z,1022.27
2018-02-16T12:24:04.398Z,1022.21
2018-02-16T12:25:13.382Z,1022.23
2018-02-16T12:26:22.336Z,1022.26
2018-02-16T12:27:31.583Z,1022.2
2018-02-16T12:28:40.842Z,1022.23
2018-02-16T12:29:50.415Z,1022.25
2018-02-16T12:31:00.056Z,1022.24
2018-02-16T12:32:09.311Z,1022.23
2018-02-16T12:33:18.022Z,1022.2
2018-02-16T12:34:26.984Z,1022.19
2018-02-16T12:35:36.561Z,1022.22
2018-02-16T12:36:45.755Z,1022.22
2018-02-16T12:37:54.771Z,1022.25
2018-02-16T12:39:04.020Z,1022.26
2018-02-16T12:40:12.806Z,1022.3
2018-02-16T12:41:22.023Z,1022.3
2018-02-16T12:42:31.503Z,1022.28
2018-02-16T12:43:40.524Z,1022.31
2018-02-16T12:44:49.588Z,1022.26
2018-02-16T12:45:58.785Z,1022.32
2018-02-16T12:47:07.523Z,1022.28
2018-02-16T12:48:16.797Z,1022.34
2018-02-16T12:49:25.840Z,1022.35
2018-02-16T12:50:35.091Z,1022.25
2018-02-16T12:51:44.343Z,1022.32
2018-02-16T12:52:53.317Z,1022.31
2018-02-16T12:54:02.600Z,1022.33
2018-02-16T12:55:11.602Z,1022.31
2018-02-16T12:56:20.569Z,1022.28
2018-02-16T12:57:29.872Z,1022.31
2018-02-16T12:58:38.839Z,1022.25
2018-02-16T12:59:48.142Z,1022.32
2018-02-16T13:00:57.377Z,1022.28
2018-02-16T13:02:06.072Z,1022.29
2018-02-16T13:03:15.324Z,1022.3
2018-02-16T13:04:24.045Z,1022.25
2018-02-16T13:05:32.736Z,1022.27
2018-02-16T13:06:42.209Z,1022.23
2018-02-16T13:07:51.415Z,1022.25
2018-02-16T13:09:00.148Z,1022.19
2018-02-16T13:10:08.840Z,1022.19
2018-02-16T13:11:18.075Z,1022.19
2018-02-16T13:12:27.307Z,1022.21
2018-02-16T13:13:36.512Z,1022.16
2018-02-16T13:14:45.460Z,1022.19
2018-02-16T13:15:54.175Z,1022.14
2018-02-16T13:17:02.857Z,1022.15
2018-02-16T13:18:12.323Z,1022.13
2018-02-16T13:19:21.814Z,1022.11
2018-02-16T13:20:31.047Z,1022.13
2018-02-16T13:21:39.751Z,1022.15
2018-02-16T13:22:48.972Z,1022.11
2018-02-16T13:23:57.946Z,1022.09
2018-02-16T13:25:06.932Z,1022.07
2018-02-16T13:26:15.908Z,1022.02
2018-02-16T13:27:25.385Z,1022.09
2018-02-16T13:28:34.065Z,1022.05
2018-02-16T13:29:43.079Z,1022.08
2018-02-16T13:30:52.055Z,1022.02
2018-02-16T13:32:01.311Z,1022.11
2018-02-16T13:33:10.009Z,1022.06
2018-02-16T13:34:19.242Z,1022.04
2018-02-16T13:35:28.181Z,1022.01
2018-02-16T13:36:36.881Z,1022.05
2018-02-16T13:37:46.681Z,1022.05
2018-02-16T13:38:55.394Z,1022.03
2018-02-16T13:40:04.168Z,1022.05
2018-02-16T13:41:13.390Z,1022.04
2018-02-16T13:42:22.105Z,1022.06
2018-02-16T13:43:31.321Z,1022
2018-02-16T13:44:40.281Z,1022.01
2018-02-16T13:45:48.971Z,1021.98
2018-02-16T13:46:57.968Z,1021.95
2018-02-16T13:48:07.488Z,1022.02
2018-02-16T13:49:16.535Z,1021.99
2018-02-16T13:50:25.513Z,1021.96
2018-02-16T13:51:34.267Z,1021.95
2018-02-16T13:52:42.995Z,1021.95
2018-02-16T13:53:52.007Z,1021.95
2018-02-16T13:55:01.273Z,1021.94
2018-02-16T13:56:10.528Z,1021.96
2018-02-16T13:57:20.020Z,1021.95
2018-02-16T13:58:28.982Z,1021.98